Time,TemperatureF,DewpointF,PressureIn,WindDirection,WindDirectionDegrees,WindSpeedMPH,WindSpeedGustMPH,Humidity,HourlyPrecipIn,Conditions,Clouds,dailyrainin,SoftwareType,DateUTC
2013-07-21 00:01:00,73.5,41.0,29.82,ENE,78,0.0,-999.0,31,-99.99,,,0.00,weatherlink.com 1.10,2013-07-21 07:01:00,
2013-07-21 00:16:00,73.8,41.0,29.81,ENE,78,0.0,-999.0,31,-99.99,,,0.00,weatherlink.com 1.10,2013-07-21 07:16:00,
2013-07-21 00:31:00,74.0,41.0,29.81,ENE,78,0.0,-999.0,30,-99.99,,,0.00,weatherlink.com 1.10,2013-07-21 07:31:00,
2013-07-21 00:46:00,74.2,41.0,29.81,ENE,78,0.0,-999.0,30,-99.99,,,0.00,weatherlink.com 1.10,2013-07-21 07:46:00,
2013-07-21 01:01:00,74.2,41.0,29.81,ENE,78,0.0,-999.0,30,-99.99,,,0.00,weatherlink.com 1.10,2013-07-21 08:01:00,
2013-07-21 01:16:00,73.8,40.0,29.81,ENE,78,0.0,-999.0,30,-99.99,,,0.00,weatherlink.com 1.10,2013-07-21 08:16:00,
2013-07-21 01:31:00,72.8,39.0,29.80,ENE,78,0.0,-999.0,29,-99.99,,,0.00,weatherlink.com 1.10,2013-07-21 08:31:00,
2013-07-21 01:46:00,71.4,38.0,29.80,ENE,78,0.0,-999.0,30,-99.99,,,0.00,weatherlink.com 1.10,2013-07-21 08:46:00,
2013-07-21 02:01:00,71.3,41.0,29.80,ENE,76,0.0,-999.0,33,-99.99,,,0.00,weatherlink.com 1.10,2013-07-21 09:01:00,
2013-07-21 02:16:00,71.0,41.0,29.80,ENE,77,0.0,-999.0,34,-99.99,,,0.00,weatherlink.com 1.10,2013-07-21 09:16:00,
2013-07-21 02:31:00,70.6,41.0,29.80,ENE,76,0.0,-999.0,34,-99.99,,,0.00,weatherlink.com 1.10,2013-07-21 09:31:00,
2013-07-21 02:46:00,70.2,42.0,29.80,ENE,71,0.0,-999.0,36,-99.99,,,0.00,weatherlink.com 1.10,2013-07-21 09:46:00,
2013-07-21 03:01:00,70.2,41.0,29.80,ENE,78,0.0,-999.0,35,-99.99,,,0.00,weatherlink.com 1.10,2013-07-21 10:01:00,
2013-07-21 03:16:00,70.2,41.0,29.80,ENE,72,0.0,-999.0,35,-99.99,,,0.00,weatherlink.com 1.10,2013-07-21 10:16:00,
2013-07-21 03:31:00,70.3,41.0,29.80,ENE,76,0.0,-999.0,35,-99.99,,,0.00,weatherlink.com 1.10,2013-07-21 10:31:00,
2013-07-21 03:46:00,70.5,41.0,29.80,ENE,76,0.0,-999.0,34,-99.99,,,0.00,weatherlink.com 1.10,2013-07-21 10:46:00,
2013-07-21 04:01:00,70.1,42.0,29.80,ENE,76,0.0,-999.0,36,-99.99,,,0.00,weatherlink.com 1.10,2013-07-21 11:01:00,
2013-07-21 04:16:00,68.5,42.0,29.80,ENE,76,0.0,-999.0,38,-99.99,,,0.00,weatherlink.com 1.10,2013-07-21 11:16:00,
2013-07-21 04:31:00,64.2,47.0,29.80,East,95,0.0,-999.0,54,-99.99,,,0.00,weatherlink.com 1.10,2013-07-21 11:31:00,
2013-07-21 04:46:00,62.4,47.0,29.80,East,96,0.0,-999.0,58,-99.99,,,0.00,weatherlink.com 1.10,2013-07-21 11:46:00,
2013-07-21 05:01:00,62.3,46.0,29.80,East,96,0.0,-999.0,56,-99.99,,,0.00,weatherlink.com 1.10,2013-07-21 12:01:00,
2013-07-21 05:16:00,62.3,46.0,29.81,East,96,0.0,-999.0,56,-99.99,,,0.00,weatherlink.com 1.10,2013-07-21 12:16:00,
2013-07-21 05:31:00,62.3,48.0,29.81,East,82,0.0,-999.0,59,-99.99,,,0.00,weatherlink.com 1.10,2013-07-21 12:31:00,
2013-07-21 05:46:00,62.4,46.0,29.82,ENE,61,0.0,-999.0,55,-99.99,,,0.00,weatherlink.com 1.10,2013-07-21 12:46:00,
2013-07-21 06:01:00,64.3,45.0,29.82,ENE,61,0.0,-999.0,49,-99.99,,,0.00,weatherlink.com 1.10,2013-07-21 13:01:00,
2013-07-21 06:16:00,62.9,49.0,29.82,ENE,78,0.0,-999.0,61,-99.99,,,0.00,weatherlink.com 1.10,2013-07-21 13:16:00,
2013-07-21 06:31:00,62.7,48.0,29.82,East,79,0.0,-999.0,59,-99.99,,,0.00,weatherlink.com 1.10,2013-07-21 13:31:00,
2013-07-21 06:46:00,62.9,47.0,29.82,ENE,69,0.0,-999.0,56,-99.99,,,0.00,weatherlink.com 1.10,2013-07-21 13:46:00,
2013-07-21 07:01:00,63.6,49.0,29.82,ENE,68,2.0,-999.0,59,-99.99,,,0.00,weatherlink.com 1.10,2013-07-21 14:01:00,
2013-07-21 07:16:00,64.0,49.0,29.84,East,86,0.0,-999.0,58,-99.99,,,0.00,weatherlink.com 1.10,2013-07-21 14:16:00,
2013-07-21 07:31:00,64.7,48.0,29.84,ESE,102,0.0,-999.0,56,-99.99,,,0.00,weatherlink.com 1.10,2013-07-21 14:31:00,
2013-07-21 07:46:00,66.0,49.0,29.84,East,85,1.0,-999.0,54,-99.99,,,0.00,weatherlink.com 1.10,2013-07-21 14:46:00,
2013-07-21 08:01:00,67.0,49.0,29.85,East,88,0.0,-999.0,52,-99.99,,,0.00,weatherlink.com 1.10,2013-07-21 15:01:00,
2013-07-21 08:16:00,67.8,50.0,29.85,SE,126,0.0,-999.0,53,-99.99,,,0.00,weatherlink.com 1.10,2013-07-21 15:16:00,
2013-07-21 08:31:00,67.6,51.0,29.86,ESE,106,1.0,-999.0,56,-99.99,,,0.00,weatherlink.com 1.10,2013-07-21 15:31:00,
2013-07-21 08:46:00,68.7,49.0,29.86,ESE,109,2.0,-999.0,50,-99.99,,,0.00,weatherlink.com 1.10,2013-07-21 15:46:00,
2013-07-21 09:01:00,70.6,50.0,29.86,SE,125,0.0,-999.0,49,-99.99,,,0.00,weatherlink.com 1.10,2013-07-21 16:01:00,
2013-07-21 09:16:00,71.0,52.0,29.86,ENE,67,0.0,-999.0,51,-99.99,,,0.00,weatherlink.com 1.10,2013-07-21 16:16:00,
2013-07-21 09:31:00,71.3,53.0,29.86,ENE,67,2.0,-999.0,52,-99.99,,,0.00,weatherlink.com 1.10,2013-07-21 16:31:00,
2013-07-21 09:46:00,71.6,53.0,29.86,ESE,123,0.0,-999.0,53,-99.99,,,0.00,weatherlink.com 1.10,2013-07-21 16:46:00,
2013-07-21 10:01:00,71.5,54.0,29.86,ESE,118,0.0,-999.0,55,-99.99,,,0.00,weatherlink.com 1.10,2013-07-21 17:01:00,
2013-07-21 10:16:00,71.8,54.0,29.87,SE,136,0.0,-999.0,54,-99.99,,,0.00,weatherlink.com 1.10,2013-07-21 17:16:00,
2013-07-21 10:31:00,71.0,53.0,29.87,East,91,2.0,-999.0,54,-99.99,,,0.00,weatherlink.com 1.10,2013-07-21 17:31:00,
2013-07-21 10:47:00,72.6,54.0,29.86,SE,125,0.0,-999.0,53,-99.99,,,0.00,weatherlink.com 1.10,2013-07-21 17:47:00,
2013-07-21 11:02:00,72.1,55.0,29.86,ESE,114,3.0,-999.0,56,-99.99,,,0.00,weatherlink.com 1.10,2013-07-21 18:02:00,
2013-07-21 11:16:00,72.4,56.0,29.87,SE,133,0.0,-999.0,57,-99.99,,,0.00,weatherlink.com 1.10,2013-07-21 18:16:00,
2013-07-21 11:31:00,70.1,55.0,29.87,East,95,1.0,-999.0,59,-99.99,,,0.00,weatherlink.com 1.10,2013-07-21 18:31:00,
2013-07-21 11:46:00,69.6,55.0,29.87,SE,130,0.0,-999.0,60,-99.99,,,0.00,weatherlink.com 1.10,2013-07-21 18:46:00,
2013-07-21 12:01:00,70.8,56.0,29.86,SE,128,0.0,-999.0,59,-99.99,,,0.00,weatherlink.com 1.10,2013-07-21 19:01:00,
2013-07-21 12:16:00,72.9,57.0,29.86,SE,132,0.0,-999.0,57,-99.99,,,0.00,weatherlink.com 1.10,2013-07-21 19:16:00,
2013-07-21 12:31:00,73.7,57.0,29.86,SSE,149,0.0,-999.0,57,-99.99,,,0.00,weatherlink.com 1.10,2013-07-21 19:31:00,
2013-07-21 12:46:00,72.0,57.0,29.86,ESE,106,0.0,-999.0,60,-99.99,,,0.00,weatherlink.com 1.10,2013-07-21 19:46:00,
2013-07-21 13:01:00,72.3,58.0,29.86,East,97,0.0,-999.0,61,-99.99,,,0.00,weatherlink.com 1.10,2013-07-21 20:01:00,
2013-07-21 13:16:00,72.7,58.0,29.87,East,95,0.0,-999.0,61,-99.99,,,0.00,weatherlink.com 1.10,2013-07-21 20:16:00,
2013-07-21 13:31:00,71.4,58.0,29.88,SE,125,2.0,-999.0,62,-99.99,,,0.00,weatherlink.com 1.10,2013-07-21 20:31:00,
2013-07-21 13:46:00,71.2,58.0,29.88,SE,132,1.0,-999.0,63,-99.99,,,0.00,weatherlink.com 1.10,2013-07-21 20:46:00,
2013-07-21 14:01:00,69.9,58.0,29.88,ESE,111,3.0,-999.0,67,-99.99,,,0.00,weatherlink.com 1.10,2013-07-21 21:01:00,
2013-07-21 14:16:00,69.0,58.0,29.88,SSE,147,4.0,-999.0,68,-99.99,,,0.00,weatherlink.com 1.10,2013-07-21 21:16:00,
2013-07-21 14:31:00,69.7,58.0,29.88,ESE,117,6.0,-999.0,67,-99.99,,,0.00,weatherlink.com 1.10,2013-07-21 21:31:00,
2013-07-21 14:46:00,69.5,58.0,29.88,ESE,106,2.0,-999.0,66,-99.99,,,0.00,weatherlink.com 1.10,2013-07-21 21:46:00,
2013-07-21 15:02:00,71.1,58.0,29.88,SE,128,6.0,-999.0,64,-99.99,,,0.00,weatherlink.com 1.10,2013-07-21 22:02:00,
2013-07-21 15:17:00,71.6,58.0,29.88,ENE,71,0.0,-999.0,62,-99.99,,,0.00,weatherlink.com 1.10,2013-07-21 22:17:00,
2013-07-21 15:32:00,70.3,57.0,29.88,East,90,1.0,-999.0,63,-99.99,,,0.00,weatherlink.com 1.10,2013-07-21 22:32:00,
2013-07-21 15:47:00,72.5,57.0,29.87,East,99,0.0,-999.0,58,-99.99,,,0.00,weatherlink.com 1.10,2013-07-21 22:47:00,
2013-07-21 16:02:00,73.4,56.0,29.87,ESE,118,2.0,-999.0,54,-99.99,,,0.00,weatherlink.com 1.10,2013-07-21 23:02:00,
2013-07-21 16:17:00,74.3,58.0,29.88,East,96,0.0,-999.0,57,-99.99,,,0.00,weatherlink.com 1.10,2013-07-21 23:17:00,
2013-07-21 16:32:00,74.9,58.0,29.87,ESE,123,1.0,-999.0,56,-99.99,,,0.00,weatherlink.com 1.10,2013-07-21 23:32:00,
2013-07-21 16:47:00,72.4,57.0,29.87,SSE,153,0.0,-999.0,59,-99.99,,,0.00,weatherlink.com 1.10,2013-07-21 23:47:00,
2013-07-21 17:02:00,71.7,57.0,29.88,SE,129,3.0,-999.0,61,-99.99,,,0.00,weatherlink.com 1.10,2013-07-22 00:02:00,
2013-07-21 17:17:00,70.0,56.0,29.88,ESE,114,1.0,-999.0,62,-99.99,,,0.00,weatherlink.com 1.10,2013-07-22 00:17:00,
2013-07-21 17:32:00,71.6,58.0,29.88,SE,128,1.0,-999.0,62,-99.99,,,0.00,weatherlink.com 1.10,2013-07-22 00:32:00,
2013-07-21 17:47:00,69.3,57.0,29.87,SSE,150,5.0,-999.0,65,-99.99,,,0.00,weatherlink.com 1.10,2013-07-22 00:47:00,
2013-07-21 18:02:00,69.2,57.0,29.87,SE,125,0.0,-999.0,66,-99.99,,,0.00,weatherlink.com 1.10,2013-07-22 01:02:00,
2013-07-21 18:17:00,71.1,58.0,29.87,ESE,104,0.0,-999.0,63,-99.99,,,0.00,weatherlink.com 1.10,2013-07-22 01:17:00,
2013-07-21 18:32:00,71.3,57.0,29.87,SSE,155,0.0,-999.0,62,-99.99,,,0.00,weatherlink.com 1.10,2013-07-22 01:32:00,
2013-07-21 18:47:00,69.7,57.0,29.88,ESE,123,0.0,-999.0,65,-99.99,,,0.00,weatherlink.com 1.10,2013-07-22 01:47:00,
2013-07-21 19:02:00,69.4,57.0,29.88,ESE,106,0.0,-999.0,65,-99.99,,,0.00,weatherlink.com 1.10,2013-07-22 02:02:00,
2013-07-21 19:17:00,69.7,57.0,29.87,East,98,0.0,-999.0,64,-99.99,,,0.00,weatherlink.com 1.10,2013-07-22 02:17:00,
2013-07-21 19:32:00,70.3,56.0,29.88,ESE,113,0.0,-999.0,60,-99.99,,,0.00,weatherlink.com 1.10,2013-07-22 02:32:00,
2013-07-21 19:47:00,70.6,55.0,29.88,SE,136,0.0,-999.0,58,-99.99,,,0.00,weatherlink.com 1.10,2013-07-22 02:47:00,
2013-07-21 20:02:00,70.3,55.0,29.88,ENE,59,2.0,-999.0,59,-99.99,,,0.00,weatherlink.com 1.10,2013-07-22 03:02:00,
2013-07-21 20:17:00,70.0,55.0,29.89,ESE,115,0.0,-999.0,60,-99.99,,,0.00,weatherlink.com 1.10,2013-07-22 03:17:00,
2013-07-21 20:32:00,69.5,54.0,29.89,East,95,0.0,-999.0,59,-99.99,,,0.00,weatherlink.com 1.10,2013-07-22 03:32:00,
2013-07-21 20:47:00,68.9,54.0,29.89,East,90,0.0,-999.0,60,-99.99,,,0.00,weatherlink.com 1.10,2013-07-22 03:47:00,
2013-07-21 21:02:00,68.5,53.0,29.90,East,95,0.0,-999.0,59,-99.99,,,0.00,weatherlink.com 1.10,2013-07-22 04:02:00,
2013-07-21 21:17:00,67.8,54.0,29.90,ESE,106,0.0,-999.0,62,-99.99,,,0.00,weatherlink.com 1.10,2013-07-22 04:17:00,
2013-07-21 21:32:00,66.9,55.0,29.91,East,87,0.0,-999.0,65,-99.99,,,0.00,weatherlink.com 1.10,2013-07-22 04:32:00,
2013-07-21 21:47:00,65.6,55.0,29.91,East,81,0.0,-999.0,68,-99.99,,,0.00,weatherlink.com 1.10,2013-07-22 04:47:00,
2013-07-21 22:02:00,64.6,55.0,29.92,East,80,0.0,-999.0,70,-99.99,,,0.00,weatherlink.com 1.10,2013-07-22 05:02:00,
2013-07-21 22:17:00,63.0,54.0,29.93,ESE,103,0.0,-999.0,72,-99.99,,,0.00,weatherlink.com 1.10,2013-07-22 05:17:00,
2013-07-21 22:32:00,61.9,53.0,29.92,ESE,103,0.0,-999.0,72,-99.99,,,0.00,weatherlink.com 1.10,2013-07-22 05:32:00,
2013-07-21 22:47:00,61.1,52.0,29.92,East,96,0.0,-999.0,73,-99.99,,,0.00,weatherlink.com 1.10,2013-07-22 05:47:00,
2013-07-21 23:02:00,60.5,52.0,29.92,East,82,0.0,-999.0,73,-99.99,,,0.00,weatherlink.com 1.10,2013-07-22 06:02:00,
2013-07-21 23:17:00,60.2,52.0,29.92,NE,56,0.0,-999.0,73,-99.99,,,0.00,weatherlink.com 1.10,2013-07-22 06:17:00,
2013-07-21 23:32:00,63.5,54.0,29.92,NE,56,0.0,-999.0,72,-99.99,,,0.00,weatherlink.com 1.10,2013-07-22 06:32:00,
2013-07-21 23:47:00,64.5,55.0,29.93,NE,56,0.0,-999.0,70,-99.99,,,0.00,weatherlink.com 1.10,2013-07-22 06:47:00,